Terminal Aerodrome Forecast
Issued by NWS

Home | Current Version | Previous Version | Text Only | Print | Product List | Glossary On
Versions: 1 2 3 4 5 6 7 8 9 10 11 12
000
FTUS44 KCRP 251120
TAFLRD
TAF
KLRD 251120Z 2512/2612 14012KT P6SM FEW021 SCT250
     FM251400 16015G20KT P6SM SCT025 SCT250
     FM252300 13015G20KT P6SM SCT060
     FM260500 14016KT P6SM SKC=

USA.gov is the U.S. government's official web portal to all federal, state and local government web resources and services.